Time;durP1;ratioP1;P1;durP2;ratioP2;P2;SDS_P1;SDS_P2;PMS_P1;PMS_P2;Temp;Humidity;BMP_temperature;BMP_pressure;BME280_temperature;BME280_humidity;BME280_pressure;Samples;Min_cycle;Max_cycle;Signal;HPM_P1;HPM_P2
2021/06/10 00:01:40;;;;;;;1999.90;999.90;;;;;;;14.14;100.00;95531.81;5131595;27;20233;-59
2021/06/10 00:04:08;;;;;;;1999.90;999.90;;;;;;;14.18;100.00;95535.31;5131804;27;20194;-59
2021/06/10 00:06:35;;;;;;;1999.90;999.90;;;;;;;14.08;100.00;95527.84;5131874;27;20198;-59
2021/06/10 00:09:02;;;;;;;1999.90;999.90;;;;;;;14.13;100.00;95534.72;5131563;27;20237;-60
2021/06/10 00:11:28;;;;;;;1999.90;999.90;;;;;;;14.20;100.00;95532.38;5131492;27;20226;-59
2021/06/10 00:13:58;;;;;;;1999.90;999.90;;;;;;;14.38;100.00;95525.25;5131853;27;20198;-59
2021/06/10 00:16:25;;;;;;;1999.90;999.90;;;;;;;14.40;100.00;95521.22;5131899;27;20203;-59
2021/06/10 00:18:53;;;;;;;1999.90;999.90;;;;;;;14.28;100.00;95521.13;5131584;27;20277;-59
2021/06/10 00:21:21;;;;;;;1999.90;999.90;;;;;;;14.14;100.00;95520.59;5131431;27;20650;-59
2021/06/10 00:23:50;;;;;;;1999.90;999.90;;;;;;;14.07;100.00;95509.84;5131332;27;20949;-59
2021/06/10 00:26:17;;;;;;;1999.90;999.90;;;;;;;14.12;100.00;95518.28;5131483;27;20206;-59
2021/06/10 00:28:43;;;;;;;1999.90;999.90;;;;;;;14.11;100.00;95513.34;5131330;27;20202;-59
2021/06/10 00:31:10;;;;;;;1999.90;999.90;;;;;;;13.98;100.00;95506.50;5131460;27;20203;-58
2021/06/10 00:33:42;;;;;;;1999.90;999.90;;;;;;;13.94;100.00;95500.38;5131308;27;20673;-60
2021/06/10 00:36:09;;;;;;;1999.90;999.90;;;;;;;13.98;100.00;95496.81;5131513;27;20680;-58
2021/06/10 00:38:37;;;;;;;1999.90;999.90;;;;;;;14.00;100.00;95488.66;5131395;27;20683;-59
2021/06/10 00:41:04;;;;;;;1999.90;999.90;;;;;;;13.98;100.00;95489.00;5131794;27;20268;-60
2021/06/10 00:43:31;;;;;;;1999.90;999.90;;;;;;;13.99;100.00;95498.38;5130359;27;20329;-59
2021/06/10 00:46:01;;;;;;;1999.90;999.90;;;;;;;14.06;100.00;95508.31;5131244;27;20559;-59
2021/06/10 00:48:29;;;;;;;1999.90;999.90;;;;;;;13.98;100.00;95516.97;5131245;27;20199;-59
2021/06/10 00:50:55;;;;;;;1999.90;999.90;;;;;;;13.94;100.00;95521.28;5131058;27;20222;-59
2021/06/10 00:53:22;;;;;;;1999.90;999.90;;;;;;;14.05;100.00;95519.84;5131579;27;20201;-59
2021/06/10 00:55:56;;;;;;;1999.90;999.90;;;;;;;13.89;100.00;95518.84;5131008;27;20226;-59
2021/06/10 00:58:23;;;;;;;1999.90;999.90;;;;;;;13.78;100.00;95510.56;5131345;27;20725;-59
2021/06/10 01:00:51;;;;;;;1999.90;999.90;;;;;;;13.61;100.00;95506.16;5131031;28;20198;-58
2021/06/10 01:03:18;;;;;;;1999.90;999.90;;;;;;;13.63;100.00;95501.41;5130950;27;20218;-60
2021/06/10 01:05:50;;;;;;;1999.90;999.90;;;;;;;13.66;100.00;95506.00;5131014;28;20277;-58
2021/06/10 01:08:23;;;;;;;1999.90;999.90;;;;;;;13.65;100.00;95498.47;5130977;28;20237;-58
2021/06/10 01:11:03;;;;;;;1999.90;999.90;;;;;;;13.56;100.00;95502.94;5130686;27;20259;-57
2021/06/10 01:13:38;;;;;;;1999.90;999.90;;;;;;;13.44;100.00;95498.38;5130902;28;20558;-58
2021/06/10 01:16:08;;;;;;;1999.90;999.90;;;;;;;13.46;100.00;95504.03;5131146;27;20262;-59
2021/06/10 01:18:40;;;;;;;1999.90;999.90;;;;;;;13.46;100.00;95514.50;5131114;27;20194;-60
2021/06/10 01:21:09;;;;;;;1999.90;999.90;;;;;;;13.42;100.00;95518.81;5130817;28;20557;-59
2021/06/10 01:23:49;;;;;;;1999.90;999.90;;;;;;;13.50;100.00;95518.00;5130785;27;20278;-59
2021/06/10 01:26:30;;;;;;;1999.90;999.90;;;;;;;13.59;100.00;95516.16;5130541;28;20205;-59
2021/06/10 01:29:02;;;;;;;1999.90;999.90;;;;;;;13.55;100.00;95519.72;5130718;28;20693;-59
2021/06/10 01:31:29;;;;;;;1999.90;999.90;;;;;;;13.57;100.00;95518.31;5131004;28;20245;-59
2021/06/10 01:34:01;;;;;;;1999.90;999.90;;;;;;;13.59;100.00;95516.16;5131017;28;20202;-60
2021/06/10 01:36:31;;;;;;;1999.90;999.90;;;;;;;13.65;100.00;95514.13;5130764;28;20194;-59
2021/06/10 01:39:01;;;;;;;1999.90;999.90;;;;;;;13.59;100.00;95516.16;5130980;28;20250;-59
2021/06/10 01:41:29;;;;;;;1999.90;999.90;;;;;;;13.46;100.00;95513.72;5130953;28;20198;-58
2021/06/10 01:44:01;;;;;;;1999.90;999.90;;;;;;;13.45;100.00;95502.50;5130897;28;20654;-58
2021/06/10 01:46:30;;;;;;;1999.90;999.90;;;;;;;13.51;100.00;95498.66;5130881;28;20251;-59
2021/06/10 01:48:59;;;;;;;1999.90;999.90;;;;;;;13.48;100.00;95509.75;5130629;27;20657;-60
2021/06/10 01:51:33;;;;;;;1999.90;999.90;;;;;;;13.31;100.00;95509.75;5130420;27;20195;-60
2021/06/10 01:54:04;;;;;;;1999.90;999.90;;;;;;;13.31;100.00;95505.31;5130686;28;20288;-61
2021/06/10 01:56:31;;;;;;;1999.90;999.90;;;;;;;13.36;100.00;95506.97;5133619;27;20199;-60
2021/06/10 01:59:01;;;;;;;1999.90;999.90;;;;;;;13.40;100.00;95517.59;5134303;27;20626;-60
2021/06/10 02:01:30;;;;;;;1999.90;999.90;;;;;;;13.41;100.00;95509.44;5134187;27;20194;-61
2021/06/10 02:03:58;;;;;;;1999.90;999.90;;;;;;;13.38;100.00;95517.91;5134344;27;20229;-60
2021/06/10 02:06:25;;;;;;;1999.90;999.90;;;;;;;13.33;100.00;95512.84;5134023;27;20190;-60
2021/06/10 02:08:53;;;;;;;1999.90;999.90;;;;;;;13.22;100.00;95509.78;5134183;27;20190;-61
2021/06/10 02:11:21;;;;;;;1999.90;999.90;;;;;;;13.02;100.00;95523.41;5133931;27;20275;-59
2021/06/10 02:13:52;;;;;;;1999.90;999.90;;;;;;;13.09;100.00;95522.97;5133990;27;20199;-60
2021/06/10 02:16:22;;;;;;;1999.90;999.90;;;;;;;13.02;100.00;95517.44;5133979;27;20282;-60
2021/06/10 02:18:49;;;;;;;1999.90;999.90;;;;;;;12.79;100.00;95522.81;5134067;27;20209;-60
2021/06/10 02:21:17;;;;;;;1999.90;999.90;;;;;;;12.71;100.00;95522.78;5134060;27;20191;-60
2021/06/10 02:23:47;;;;;;;1999.90;999.90;;;;;;;12.77;100.00;95534.59;5133657;27;20734;-61
2021/06/10 02:26:15;;;;;;;1999.90;999.90;;;;;;;12.78;100.00;95521.25;5134065;27;20234;-60
2021/06/10 02:28:43;;;;;;;1999.90;999.90;;;;;;;12.80;100.00;95532.13;5133401;27;20692;-59
2021/06/10 02:31:12;;;;;;;1999.90;999.90;;;;;;;12.79;100.00;95538.44;5133890;27;20198;-60
2021/06/10 02:33:45;;;;;;;1999.90;999.90;;;;;;;12.70;100.00;95542.13;5133587;27;20760;-59
2021/06/10 02:36:14;;;;;;;1999.90;999.90;;;;;;;12.52;100.00;95541.31;5133434;27;20684;-59
2021/06/10 02:38:46;;;;;;;1999.90;999.90;;;;;;;12.55;100.00;95545.94;5133728;27;20194;-59
2021/06/10 02:41:15;;;;;;;1999.90;999.90;;;;;;;12.68;100.00;95545.03;5133654;27;20201;-62
2021/06/10 02:43:43;;;;;;;1999.90;999.90;;;;;;;12.70;100.00;95545.47;5133206;27;20712;-60
2021/06/10 02:46:11;;;;;;;1999.90;999.90;;;;;;;12.59;100.00;95540.88;5133453;27;20228;-61
2021/06/10 02:48:40;;;;;;;1999.90;999.90;;;;;;;12.67;100.00;95533.06;5133405;27;20210;-61
2021/06/10 02:51:08;;;;;;;1999.90;999.90;;;;;;;12.76;100.00;95531.22;5133257;27;20191;-59
2021/06/10 02:53:35;;;;;;;1999.90;999.90;;;;;;;12.79;100.00;95530.63;5133260;27;20190;-59
2021/06/10 02:56:07;;;;;;;1999.90;999.90;;;;;;;12.80;100.00;95534.75;5133106;27;20725;-60
2021/06/10 02:58:35;;;;;;;1999.90;999.90;;;;;;;12.81;100.00;95525.09;5133131;27;20194;-61
2021/06/10 03:01:05;;;;;;;1999.90;999.90;;;;;;;12.73;100.00;95521.41;5133192;27;20195;-60
2021/06/10 03:03:36;;;;;;;1999.90;999.90;;;;;;;12.73;100.00;95528.47;5132927;27;20234;-59
2021/06/10 03:06:05;;;;;;;1999.90;999.90;;;;;;;12.76;100.00;95523.41;5132569;27;20206;-60
2021/06/10 03:08:33;;;;;;;1999.90;999.90;;;;;;;12.72;100.00;95519.09;5132364;27;20201;-61
2021/06/10 03:11:02;;;;;;;1999.90;999.90;;;;;;;12.68;100.00;95526.78;5132968;27;20603;-59
2021/06/10 03:13:32;;;;;;;1999.90;999.90;;;;;;;12.66;100.00;95525.53;5132970;27;20201;-60
2021/06/10 03:15:59;;;;;;;1999.90;999.90;;;;;;;12.58;100.00;95529.69;5132624;27;20756;-60
2021/06/10 03:18:27;;;;;;;1999.90;999.90;;;;;;;12.53;100.00;95524.59;5132583;27;20190;-59
2021/06/10 03:20:54;;;;;;;1999.90;999.90;;;;;;;12.45;100.00;95525.38;5132515;27;20566;-60
2021/06/10 03:23:23;;;;;;;1999.90;999.90;;;;;;;12.51;100.00;95529.34;5132863;27;20226;-61
2021/06/10 03:25:52;;;;;;;1999.90;999.90;;;;;;;12.37;100.00;95523.50;5132745;27;20273;-59
2021/06/10 03:28:21;;;;;;;1999.90;999.90;;;;;;;12.47;100.00;95531.03;5132439;27;20247;-59
2021/06/10 03:30:48;;;;;;;1999.90;999.90;;;;;;;12.53;100.00;95537.63;5132553;27;20672;-58
2021/06/10 03:33:18;;;;;;;1999.90;999.90;;;;;;;12.60;100.00;95539.81;5132370;27;20770;-60
2021/06/10 03:35:46;;;;;;;1999.90;999.90;;;;;;;12.63;100.00;95537.34;5132947;27;20200;-58
2021/06/10 03:38:15;;;;;;;1999.90;999.90;;;;;;;12.63;100.00;95532.13;5132586;27;20201;-58
2021/06/10 03:40:46;;;;;;;1999.90;999.90;;;;;;;12.73;100.00;95533.69;5132328;27;20729;-59
2021/06/10 03:43:15;;;;;;;1999.90;999.90;;;;;;;12.87;100.00;95526.47;5132220;27;20217;-58
2021/06/10 03:45:42;;;;;;;1999.90;999.90;;;;;;;12.97;100.00;95530.63;5132020;27;20198;-58
2021/06/10 04:09:49;;;;;;;1999.90;999.90;;;;;;;14.04;100.00;95536.63;5149234;27;20507;-60
2021/06/10 04:12:16;;;;;;;1999.90;999.90;;;;;;;14.07;100.00;95535.97;5149206;27;20659;-60
2021/06/10 04:14:46;;;;;;;1999.90;999.90;;;;;;;14.11;100.00;95537.66;5148813;27;20839;-60
2021/06/10 04:17:12;;;;;;;1999.90;999.90;;;;;;;14.19;100.00;95541.31;5148583;27;20194;-60
2021/06/10 04:19:40;;;;;;;1999.90;999.90;;;;;;;14.35;100.00;95534.47;5148708;27;20656;-60
2021/06/10 04:22:06;;;;;;;1999.90;999.90;;;;;;;14.33;100.00;95539.25;5149082;27;20198;-60
2021/06/10 04:24:33;;;;;;;1999.90;999.90;;;;;;;14.52;100.00;95539.63;5148658;27;20201;-59
2021/06/10 04:27:02;;;;;;;1999.90;999.90;;;;;;;14.83;100.00;95541.13;5148271;27;20246;-61
2021/06/10 04:29:29;;;;;;;1999.90;999.90;;;;;;;15.27;100.00;95535.25;5148336;27;20197;-60
2021/06/10 04:31:56;;;;;;;1999.90;999.90;;;;;;;15.70;100.00;95537.47;5148720;27;20194;-60
2021/06/10 04:34:23;;;;;;;1999.90;999.90;;;;;;;16.11;100.00;95541.81;5148662;27;20194;-60
2021/06/10 04:36:50;;;;;;;1999.90;999.90;;;;;;;16.53;100.00;95531.88;5148379;27;20200;-60
2021/06/10 04:39:18;;;;;;;1999.90;999.90;;;;;;;17.02;98.47;95537.06;5148404;27;20193;-60
2021/06/10 04:41:44;;;;;;;1999.90;999.90;;;;;;;17.46;93.57;95533.38;5148479;27;20194;-60
2021/06/10 04:44:13;;;;;;;1999.90;999.90;;;;;;;17.83;92.70;95533.97;5148239;27;20202;-60
2021/06/10 04:46:40;;;;;;;1999.90;999.90;;;;;;;18.09;92.19;95536.13;5148206;27;20198;-60
2021/06/10 04:49:07;;;;;;;1999.90;999.90;;;;;;;18.26;92.07;95535.03;5148195;27;20619;-60
2021/06/10 04:51:34;;;;;;;1999.90;999.90;;;;;;;18.36;91.44;95539.75;5148124;27;20734;-60
2021/06/10 04:54:01;;;;;;;1999.90;999.90;;;;;;;18.33;88.73;95545.72;5147986;27;20186;-60
2021/06/10 04:56:28;;;;;;;1999.90;999.90;;;;;;;18.32;89.28;95538.94;5147886;27;20194;-59
2021/06/10 04:58:54;;;;;;;1999.90;999.90;;;;;;;18.27;87.97;95544.44;5147703;27;20218;-58
2021/06/10 05:01:24;;;;;;;1999.90;999.90;;;;;;;18.20;87.55;95557.41;5148059;27;20212;-60
2021/06/10 05:03:51;;;;;;;1999.90;999.90;;;;;;;18.17;88.21;95548.34;5147736;27;20217;-60
2021/06/10 05:06:18;;;;;;;1999.90;999.90;;;;;;;18.14;86.74;95549.00;5147782;27;20564;-60
2021/06/10 05:08:45;;;;;;;1999.90;999.90;;;;;;;18.23;88.71;95546.22;5145390;27;20230;-60
2021/06/10 05:11:12;;;;;;;1999.90;999.90;;;;;;;18.19;86.56;95546.13;5133615;27;20198;-60
2021/06/10 05:13:39;;;;;;;1999.90;999.90;;;;;;;18.22;86.72;95548.09;5133997;27;20201;-60
2021/06/10 05:16:06;;;;;;;1999.90;999.90;;;;;;;18.31;86.20;95550.53;5133909;27;20680;-60
2021/06/10 05:18:35;;;;;;;1999.90;999.90;;;;;;;18.20;86.62;95550.28;5133782;27;20190;-61
2021/06/10 05:21:05;;;;;;;1999.90;999.90;;;;;;;18.08;87.64;95545.88;5133560;27;20197;-61
2021/06/10 05:23:31;;;;;;;1999.90;999.90;;;;;;;18.08;87.79;95545.13;5133604;27;20202;-60
2021/06/10 05:25:58;;;;;;;1999.90;999.90;;;;;;;18.19;87.68;95542.72;5133541;27;20277;-60
2021/06/10 05:28:25;;;;;;;1999.90;999.90;;;;;;;18.22;85.80;95549.97;5133689;27;20232;-60
2021/06/10 05:30:52;;;;;;;1999.90;999.90;;;;;;;18.31;87.50;95547.91;5133996;27;20663;-60
2021/06/10 05:33:19;;;;;;;1999.90;999.90;;;;;;;18.49;87.94;95549.84;5133470;27;20193;-60
2021/06/10 05:35:47;;;;;;;1999.90;999.90;;;;;;;18.80;87.10;95554.31;5133237;27;20200;-60
2021/06/10 05:38:16;;;;;;;1999.90;999.90;;;;;;;18.91;87.44;95547.41;5133171;27;20204;-59
2021/06/10 05:40:42;;;;;;;1999.90;999.90;;;;;;;18.70;87.50;95541.69;5133434;27;20553;-61
2021/06/10 05:43:09;;;;;;;1999.90;999.90;;;;;;;18.83;88.94;95544.97;5133643;27;20198;-61
2021/06/10 05:45:36;;;;;;;1999.90;999.90;;;;;;;18.80;86.96;95543.78;5133038;27;20569;-61
2021/06/10 05:48:03;;;;;;;1999.90;999.90;;;;;;;19.10;87.90;95540.63;5133054;27;20240;-60
2021/06/10 05:50:30;;;;;;;1999.90;999.90;;;;;;;19.11;89.11;95537.66;5132994;27;20676;-60
2021/06/10 05:52:58;;;;;;;1999.90;999.90;;;;;;;19.31;87.12;95538.41;5133075;27;20202;-60
2021/06/10 05:55:25;;;;;;;1999.90;999.90;;;;;;;19.15;88.25;95535.84;5133060;27;20198;-60
2021/06/10 05:57:52;;;;;;;1999.90;999.90;;;;;;;19.48;85.00;95538.00;5133245;27;20217;-60
2021/06/10 06:00:20;;;;;;;1999.90;999.90;;;;;;;19.55;83.94;95538.16;5133030;27;20200;-60
2021/06/10 06:02:47;;;;;;;1999.90;999.90;;;;;;;19.52;86.05;95544.13;5132829;27;20194;-60
2021/06/10 06:05:14;;;;;;;1999.90;999.90;;;;;;;19.93;86.74;95555.78;5132833;27;20190;-60
2021/06/10 06:07:40;;;;;;;1999.90;999.90;;;;;;;20.29;82.19;95551.06;5132522;27;20222;-61
2021/06/10 06:10:10;;;;;;;1999.90;999.90;;;;;;;19.96;82.35;95551.69;5132957;27;20221;-61
2021/06/10 06:12:40;;;;;;;1999.90;999.90;;;;;;;19.91;83.77;95554.59;5132717;27;20310;-60
2021/06/10 06:15:09;;;;;;;1999.90;999.90;;;;;;;20.17;82.69;95550.13;5133161;27;20202;-61
2021/06/10 06:17:37;;;;;;;1999.90;999.90;;;;;;;20.31;81.97;95554.94;5132666;27;20200;-60
2021/06/10 06:20:07;;;;;;;1999.90;999.90;;;;;;;20.42;78.94;95560.38;5132736;27;20190;-60
2021/06/10 06:22:33;;;;;;;1999.90;999.90;;;;;;;20.54;81.54;95558.28;5131661;27;20194;-60
2021/06/10 06:27:51;;;;;;;1999.90;999.90;;;;;;;20.68;78.98;95551.69;5131175;27;20238;-60
2021/06/10 06:30:18;;;;;;;1999.90;999.90;;;;;;;20.92;77.76;95551.28;5132309;27;20659;-61
2021/06/10 06:32:49;;;;;;;1999.90;999.90;;;;;;;21.03;76.65;95562.75;5132424;27;20629;-60
2021/06/10 06:35:16;;;;;;;1999.90;999.90;;;;;;;21.00;75.26;95558.19;5132255;27;20194;-60
2021/06/10 06:37:44;;;;;;;1999.90;999.90;;;;;;;21.15;75.24;95559.91;5132364;27;20190;-60
2021/06/10 06:40:14;;;;;;;1999.90;999.90;;;;;;;21.29;72.55;95560.09;5132185;27;20199;-61
2021/06/10 06:42:41;;;;;;;1999.90;999.90;;;;;;;21.41;71.72;95565.16;5132102;27;20226;-61
2021/06/10 06:45:09;;;;;;;1999.90;999.90;;;;;;;21.55;73.16;95563.78;5132074;27;20635;-60
2021/06/10 06:47:36;;;;;;;1999.90;999.90;;;;;;;21.40;75.89;95560.22;5131976;27;20214;-61
2021/06/10 06:50:03;;;;;;;1999.90;999.90;;;;;;;21.50;73.03;95558.81;5131874;27;20197;-60
2021/06/10 06:52:30;;;;;;;1999.90;999.90;;;;;;;21.37;71.16;95564.31;5132050;27;20706;-61
2021/06/10 06:54:58;;;;;;;1999.90;999.90;;;;;;;21.28;72.11;95563.06;5132172;27;20186;-60
2021/06/10 06:57:25;;;;;;;1999.90;999.90;;;;;;;21.28;72.23;95566.50;5131948;27;20198;-60
2021/06/10 07:02:37;;;;;;;1999.90;999.90;;;;;;;21.49;70.71;95584.50;5131765;27;20281;-60
2021/06/10 07:05:05;;;;;;;1999.90;999.90;;;;;;;21.56;70.13;95584.59;5131781;27;20204;-60
2021/06/10 07:07:32;;;;;;;1999.90;999.90;;;;;;;21.82;73.15;95592.41;5131392;27;20565;-60
2021/06/10 07:09:59;;;;;;;1999.90;999.90;;;;;;;22.26;74.50;95589.09;5131825;27;20586;-60
2021/06/10 07:12:51;;;;;;;1999.90;999.90;;;;;;;22.81;77.35;95589.91;5131560;27;20740;-60
2021/06/10 07:15:18;;;;;;;1999.90;999.90;;;;;;;23.26;72.18;95601.91;5125265;27;20257;-60
2021/06/10 07:17:58;;;;;;;1999.90;999.90;;;;;;;23.05;71.89;95599.91;5131832;27;20282;-60
2021/06/10 07:20:32;;;;;;;1999.90;999.90;;;;;;;22.83;71.15;95594.81;5131550;27;20629;-60
2021/06/10 07:23:07;;;;;;;1999.90;999.90;;;;;;;22.84;73.08;95594.47;5131493;27;20185;-60
2021/06/10 07:25:34;;;;;;;1999.90;999.90;;;;;;;22.64;73.44;95590.50;5131586;27;20194;-60
2021/06/10 07:28:01;;;;;;;1999.90;999.90;;;;;;;22.79;70.04;95600.13;5131268;27;20825;-59
2021/06/10 07:30:30;;;;;;;1999.90;999.90;;;;;;;23.00;70.82;95594.94;5131172;27;20703;-62
2021/06/10 07:32:58;;;;;;;1999.90;999.90;;;;;;;23.04;70.95;95603.69;5130752;27;20310;-61
2021/06/10 07:35:43;;;;;;;1999.90;999.90;;;;;;;22.92;72.06;95603.22;5131014;27;20239;-62
2021/06/10 07:38:10;;;;;;;1999.90;999.90;;;;;;;22.83;69.95;95605.44;5131371;27;20281;-61
2021/06/10 07:40:40;;;;;;;1999.90;999.90;;;;;;;22.53;70.47;95608.97;5131096;27;20550;-61
2021/06/10 07:43:07;;;;;;;1999.90;999.90;;;;;;;22.45;71.02;95607.41;5131225;27;20755;-62
2021/06/10 07:45:34;;;;;;;1999.90;999.90;;;;;;;22.37;67.06;95603.16;5131117;27;20190;-61
2021/06/10 07:48:11;;;;;;;1999.90;999.90;;;;;;;22.43;69.98;95600.94;5131121;27;20222;-61
2021/06/10 07:50:41;;;;;;;1999.90;999.90;;;;;;;22.27;71.27;95601.94;5131256;27;20251;-62
2021/06/10 07:53:08;;;;;;;1999.90;999.90;;;;;;;22.30;66.57;95601.22;5130956;27;20232;-61
2021/06/10 07:55:35;;;;;;;1999.90;999.90;;;;;;;22.20;63.49;95599.25;5130971;28;20668;-61
2021/06/10 07:58:02;;;;;;;1999.90;999.90;;;;;;;21.90;63.75;95609.13;5130898;28;20215;-62
2021/06/10 08:00:37;;;;;;;1999.90;999.90;;;;;;;21.81;63.87;95611.31;5130907;28;20549;-61
2021/06/10 08:03:06;;;;;;;1999.90;999.90;;;;;;;21.80;66.52;95609.78;5131200;28;20198;-62
2021/06/10 08:05:35;;;;;;;1999.90;999.90;;;;;;;21.81;68.11;95611.31;5130919;28;20198;-62
2021/06/10 08:08:09;;;;;;;1999.90;999.90;;;;;;;21.75;64.35;95613.50;5130649;28;20248;-62
2021/06/10 08:10:42;;;;;;;1999.90;999.90;;;;;;;21.41;63.56;95625.97;5130946;28;20189;-62
2021/06/10 08:13:13;;;;;;;1999.90;999.90;;;;;;;21.32;65.07;95627.34;5130998;28;20273;-61
2021/06/10 08:15:50;;;;;;;1999.90;999.90;;;;;;;21.28;65.31;95627.28;5130753;28;20196;-62
2021/06/10 08:18:19;;;;;;;1999.90;999.90;;;;;;;21.15;66.64;95618.06;5130749;28;20237;-62
2021/06/10 08:20:48;;;;;;;1999.90;999.90;;;;;;;21.15;69.22;95623.34;5130706;28;20201;-61
2021/06/10 08:23:18;;;;;;;1999.90;999.90;;;;;;;21.23;68.46;95622.31;5131172;28;20210;-62
2021/06/10 08:25:45;;;;;;;1999.90;999.90;;;;;;;21.22;68.52;95625.34;5130982;28;20206;-61
2021/06/10 08:28:13;;;;;;;1999.90;999.90;;;;;;;21.44;67.32;95625.25;5130742;28;20604;-61
2021/06/10 08:30:41;;;;;;;1999.90;999.90;;;;;;;21.42;66.59;95624.81;5130602;28;20229;-62
2021/06/10 08:33:17;;;;;;;1999.90;999.90;;;;;;;21.57;66.28;95614.44;5130825;28;20290;-61
2021/06/10 08:35:45;;;;;;;1999.90;999.90;;;;;;;21.80;67.69;95615.84;5130892;28;20221;-62
2021/06/10 08:38:12;;;;;;;1999.90;999.90;;;;;;;21.88;66.12;95619.31;5130575;28;20194;-60
2021/06/10 08:40:40;;;;;;;1999.90;999.90;;;;;;;21.86;68.75;95629.50;5130566;28;20191;-61
2021/06/10 08:43:08;;;;;;;1999.90;999.90;;;;;;;21.89;64.75;95623.47;5130794;28;20206;-62
2021/06/10 08:45:48;;;;;;;;;;;;;;;;;;;;;
2021/06/10 08:48:16;;;;;;;1999.90;999.90;;;;;;;21.87;65.19;95621.19;5127255;27;20236;-62
2021/06/10 08:50:44;;;;;;;1999.90;999.90;;;;;;;22.08;69.36;95631.25;5134604;27;20190;-62
2021/06/10 08:53:11;;;;;;;1999.90;999.90;;;;;;;22.12;69.21;95631.28;5134370;27;20193;-62
2021/06/10 08:55:38;;;;;;;1999.90;999.90;;;;;;;22.47;67.32;95634.28;5134639;27;20569;-62
2021/06/10 08:58:05;;;;;;;1999.90;999.90;;;;;;;22.72;63.01;95629.97;5134203;27;20210;-62
2021/06/10 09:00:39;;;;;;;1999.90;999.90;;;;;;;22.77;63.76;95620.91;5134143;27;20198;-61
2021/06/10 09:03:20;;;;;;;;;;;;;;;;;;;;;
2021/06/10 09:06:01;;;;;;;1999.90;999.90;;;;;;;23.01;63.52;95615.00;5131361;27;20669;-62
2021/06/10 09:08:47;;;;;;;1999.90;999.90;;;;;;;22.97;61.63;95621.41;5133748;27;20787;-63
2021/06/10 09:11:15;;;;;;;1999.90;999.90;;;;;;;22.81;65.60;95615.66;5118358;27;20259;-62
2021/06/10 09:13:45;;;;;;;1999.90;999.90;;;;;;;22.74;67.76;95613.69;5133953;27;20194;-62
2021/06/10 09:16:27;;;;;;;1999.90;999.90;;;;;;;22.76;68.68;95622.06;5134137;27;20222;-62
2021/06/10 09:19:13;;;;;;;1999.90;999.90;;;;;;;22.71;67.99;95619.75;5134138;27;20277;-62
2021/06/10 09:21:43;;;;;;;1999.90;999.90;;;;;;;22.97;66.27;95622.19;5134071;27;20273;-61
2021/06/10 09:24:26;;;;;;;1999.90;999.90;;;;;;;23.02;69.31;95621.06;5133807;27;20199;-62
2021/06/10 09:27:06;;;;;;;1999.90;999.90;;;;;;;23.43;65.57;95608.41;5134218;27;20603;-62
2021/06/10 09:29:41;;;;;;;1999.90;999.90;;;;;;;23.76;63.47;95618.06;5133549;27;20226;-61
2021/06/10 09:32:30;;;;;;;1999.90;999.90;;;;;;;23.79;63.88;95618.06;5133661;27;20194;-62
2021/06/10 09:35:01;;;;;;;1999.90;999.90;;;;;;;23.58;64.02;95613.44;5133948;27;20233;-62
2021/06/10 09:37:34;;;;;;;1999.90;999.90;;;;;;;23.69;61.75;95618.03;5133668;27;20216;-61
2021/06/10 09:40:03;;;;;;;1999.90;999.90;;;;;;;23.94;60.37;95614.31;5133329;27;20564;-60
2021/06/10 09:42:49;;;;;;;1999.90;999.90;;;;;;;24.16;63.18;95603.75;5133423;27;20197;-61
2021/06/10 09:45:30;;;;;;;;;;;;;;;;;;;;;
2021/06/10 09:48:00;;;;;;;1999.90;999.90;;;;;;;24.54;58.49;95592.41;5133101;27;20230;-61
2021/06/10 09:50:32;;;;;;;1999.90;999.90;;;;;;;24.56;62.71;95584.78;5133137;27;20665;-60
2021/06/10 09:53:05;;;;;;;1999.90;999.90;;;;;;;24.63;63.09;95584.78;5133080;27;20234;-61
2021/06/10 09:55:53;;;;;;;1999.90;999.90;;;;;;;24.80;61.71;95577.94;5133422;27;20199;-61
2021/06/10 09:58:38;;;;;;;;;;;;;;;;;;;;;
2021/06/10 10:01:10;;;;;;;1999.90;999.90;;;;;;;24.78;56.41;95575.66;5132953;27;20204;-61
2021/06/10 10:03:41;;;;;;;1999.90;999.90;;;;;;;24.59;56.82;95573.41;5133179;27;20286;-61
2021/06/10 10:06:19;;;;;;;1999.90;999.90;;;;;;;24.62;59.76;95567.31;5133393;27;20705;-61
2021/06/10 10:09:09;;;;;;;1999.90;999.90;;;;;;;24.96;57.42;95565.00;5132626;27;20740;-61
2021/06/10 10:11:36;;;;;;;1999.90;999.90;;;;;;;25.37;59.61;95561.84;5114785;27;20195;-61
2021/06/10 10:14:06;;;;;;;1999.90;999.90;;;;;;;25.39;56.55;95555.00;5132955;27;20280;-61
2021/06/10 10:16:36;;;;;;;1999.90;999.90;;;;;;;25.55;58.70;95560.66;5133021;27;20198;-61
2021/06/10 10:19:06;;;;;;;1999.90;999.90;;;;;;;25.90;58.55;95553.63;5132916;27;20294;-61
2021/06/10 10:21:36;;;;;;;1999.90;999.90;;;;;;;25.73;58.58;95549.91;5132521;27;20224;-63
2021/06/10 10:24:06;;;;;;;1999.90;999.90;;;;;;;25.45;58.89;95555.38;5132736;27;20198;-62
2021/06/10 10:26:33;;;;;;;1999.90;999.90;;;;;;;25.51;59.06;95545.81;5132679;27;20290;-61
2021/06/10 10:29:06;;;;;;;1999.90;999.90;;;;;;;25.66;58.11;95550.72;5132504;27;20279;-63
2021/06/10 10:31:34;;;;;;;1999.90;999.90;;;;;;;25.46;60.47;95543.56;5132384;27;20202;-63
2021/06/10 10:34:01;;;;;;;1999.90;999.90;;;;;;;25.79;58.56;95540.38;5132268;27;20273;-63
2021/06/10 10:36:30;;;;;;;1999.90;999.90;;;;;;;25.92;52.55;95543.34;5132212;27;20190;-63
2021/06/10 10:39:02;;;;;;;1999.90;999.90;;;;;;;26.01;57.35;95540.97;5132866;27;20217;-61
2021/06/10 10:41:31;;;;;;;1999.90;999.90;;;;;;;25.98;57.78;95533.78;5132293;27;20205;-61
2021/06/10 10:44:21;;;;;;;;;;;;;;;;;;;;;
2021/06/10 10:47:10;;;;;;;1999.90;999.90;;;;;;;26.10;57.75;95526.06;5132187;27;20194;-61
2021/06/10 10:49:42;;;;;;;1999.90;999.90;;;;;;;26.32;53.76;95532.03;5132138;27;20221;-61
2021/06/10 10:52:33;;;;;;;1999.90;999.90;;;;;;;26.07;52.94;95534.09;5132019;27;20602;-61
2021/06/10 10:55:15;;;;;;;1999.90;999.90;;;;;;;26.18;55.36;95529.44;5131836;27;20688;-61
2021/06/10 10:57:48;;;;;;;1999.90;999.90;;;;;;;26.44;50.79;95525.47;5132175;27;20680;-62
2021/06/10 11:00:21;;;;;;;1999.90;999.90;;;;;;;26.48;49.63;95526.94;5132056;27;20250;-61
2021/06/10 11:03:15;;;;;;;1999.90;999.90;;;;;;;26.21;52.66;95518.00;5131771;27;20198;-62
2021/06/10 11:05:43;;;;;;;1999.90;999.90;;;;;;;26.25;53.72;95507.34;5131645;27;20254;-62
2021/06/10 11:11:06;;;;;;;1999.90;999.90;;;;;;;26.52;47.18;95506.34;5128118;27;20688;-62
2021/06/10 11:13:47;;;;;;;1999.90;999.90;;;;;;;26.56;48.10;95503.63;5131708;27;20190;-61
2021/06/10 11:16:15;;;;;;;1999.90;999.90;;;;;;;26.52;51.11;95505.56;5131488;27;20736;-60
2021/06/10 11:18:47;;;;;;;1999.90;999.90;;;;;;;26.43;50.97;95507.94;5131469;27;20195;-61
2021/06/10 11:21:38;;;;;;;1999.90;999.90;;;;;;;26.27;49.61;95497.03;5131397;27;20254;-61
2021/06/10 11:24:25;;;;;;;1999.90;999.90;;;;;;;26.44;47.84;95504.91;5131125;27;20243;-62
2021/06/10 11:27:02;;;;;;;1999.90;999.90;;;;;;;26.68;46.62;95503.13;5131286;27;20186;-61
2021/06/10 11:29:32;;;;;;;1999.90;999.90;;;;;;;26.17;48.33;95493.28;5131490;27;20313;-62
2021/06/10 11:32:25;;;;;;;1999.90;999.90;;;;;;;26.05;47.82;95491.13;5131235;27;20199;-60
2021/06/10 11:35:06;;;;;;;1999.90;999.90;;;;;;;26.40;49.14;95488.16;5131810;27;20194;-62
2021/06/10 11:37:36;;;;;;;1999.90;999.90;;;;;;;26.64;49.25;95480.34;5131496;27;20191;-61
2021/06/10 11:40:04;;;;;;;1999.90;999.90;;;;;;;26.57;48.55;95483.81;5131633;27;20194;-61
2021/06/10 11:42:31;;;;;;;1999.90;999.90;;;;;;;26.50;49.31;95476.63;5131147;27;20588;-62